Time;durP1;ratioP1;P1;durP2;ratioP2;P2;SDS_P1;SDS_P2;PMS_P1;PMS_P2;Temp;Humidity;BMP_temperature;BMP_pressure;BME280_temperature;BME280_humidity;BME280_pressure;Samples;Min_cycle;Max_cycle;Signal;HPM_P1;HPM_P2
2023/07/01 00:00:27;;;;;;;5.80;5.20;;;;;;;25.32;49.80;96951.63;5011736;28;20230;-23
2023/07/01 00:02:54;;;;;;;5.10;4.60;;;;;;;25.32;49.63;96951.63;5011778;28;20201;-23
2023/07/01 00:05:20;;;;;;;5.40;4.87;;;;;;;25.32;49.84;96954.19;5012267;28;20202;-23
2023/07/01 00:07:47;;;;;;;4.90;4.40;;;;;;;25.31;49.77;96955.91;5008332;28;20560;-26
2023/07/01 00:10:14;;;;;;;5.27;4.77;;;;;;;25.32;49.65;96956.78;5006108;28;20576;-23
2023/07/01 00:12:40;;;;;;;5.20;4.70;;;;;;;25.32;49.64;96951.63;5003726;28;20243;-22
2023/07/01 00:15:07;;;;;;;5.07;4.57;;;;;;;25.32;49.61;96951.63;5000869;28;20211;-22
2023/07/01 00:17:34;;;;;;;5.03;4.53;;;;;;;25.32;49.94;96949.97;4997351;28;20207;-24
2023/07/01 00:20:01;;;;;;;5.37;4.87;;;;;;;25.31;49.81;96953.31;5005725;28;20237;-23
2023/07/01 00:22:27;;;;;;;5.50;5.00;;;;;;;25.32;49.49;96943.91;5003714;28;20257;-23
2023/07/01 00:24:54;;;;;;;4.73;4.30;;;;;;;25.31;49.72;96953.31;5007640;28;20680;-26
2023/07/01 00:27:20;;;;;;;5.23;4.73;;;;;;;25.31;49.77;96953.31;4995695;28;20211;-23
2023/07/01 00:29:47;;;;;;;5.27;4.77;;;;;;;25.31;49.73;96945.59;5000312;28;20229;-23
2023/07/01 00:32:13;;;;;;;4.43;4.03;;;;;;;25.30;49.54;96949.03;4999713;28;20313;-23
2023/07/01 00:34:40;;;;;;;5.00;4.50;;;;;;;25.30;49.97;96948.16;5006765;28;20271;-29
2023/07/01 00:37:07;;;;;;;5.30;4.80;;;;;;;25.30;49.82;96956.75;5006529;28;20253;-22
2023/07/01 00:39:33;;;;;;;4.67;4.27;;;;;;;25.31;49.62;96960.19;5004076;28;20206;-22
2023/07/01 00:42:00;;;;;;;4.50;4.10;;;;;;;25.31;49.59;96955.06;5003758;28;20512;-23
2023/07/01 00:44:27;;;;;;;5.30;4.60;;;;;;;25.31;49.48;96950.75;5003100;28;20265;-21
2023/07/01 00:46:53;;;;;;;5.17;4.67;;;;;;;25.26;49.67;96949.03;5006253;28;20261;-23
2023/07/01 00:49:21;;;;;;;5.27;4.77;;;;;;;25.31;49.88;96955.06;4998730;28;20633;-23
2023/07/01 00:51:47;;;;;;;5.00;4.50;;;;;;;25.31;49.88;96953.31;4998149;28;20607;-22
2023/07/01 00:54:14;;;;;;;4.73;4.27;;;;;;;25.31;49.92;96953.31;4999299;28;20257;-23
2023/07/01 00:56:41;;;;;;;5.20;4.70;;;;;;;25.30;49.88;96956.75;4988336;28;20211;-23
2023/07/01 00:59:07;;;;;;;5.17;4.60;;;;;;;25.30;49.91;96956.75;5011759;28;20349;-30
2023/07/01 01:01:36;;;;;;;5.03;4.53;;;;;;;25.18;49.83;96936.13;5004408;28;20221;-23
2023/07/01 01:04:29;;;;;;;4.90;4.40;;;;;;;25.31;49.79;96965.34;4995850;28;20198;-23
2023/07/01 01:07:03;;;;;;;4.93;4.43;;;;;;;25.30;50.02;96959.34;4982410;28;20294;-26
2023/07/01 01:09:41;;;;;;;5.00;4.50;;;;;;;25.31;49.54;96957.63;4979420;28;20242;-37
2023/07/01 01:12:10;;;;;;;4.53;4.13;;;;;;;25.30;49.89;96961.91;4999340;28;20226;-23
2023/07/01 01:14:37;;;;;;;4.80;4.30;;;;;;;25.18;49.71;96938.69;5007998;28;20212;-23
2023/07/01 01:17:06;;;;;;;4.57;4.17;;;;;;;25.17;49.88;96940.38;5005228;28;20211;-23
2023/07/01 01:19:38;;;;;;;4.67;4.27;;;;;;;25.29;49.78;96961.91;5000088;28;20206;-22
2023/07/01 01:22:21;;;;;;;4.57;4.17;;;;;;;25.29;49.90;96955.06;4989581;28;20688;-26
2023/07/01 01:24:51;;;;;;;4.90;4.40;;;;;;;25.13;49.74;96923.22;5004358;28;20240;-23
2023/07/01 01:27:21;;;;;;;4.47;4.07;;;;;;;25.30;49.74;96948.16;5011440;28;20213;-23
2023/07/01 01:29:48;;;;;;;4.67;4.27;;;;;;;25.31;50.10;96949.91;5014831;28;20210;-23
2023/07/01 01:32:14;;;;;;;5.57;4.63;;;;;;;25.30;50.01;96938.75;5005118;28;20226;-22
2023/07/01 01:34:41;;;;;;;4.63;4.20;;;;;;;25.29;49.81;96936.19;5008021;28;20214;-27
2023/07/01 01:37:34;;;;;;;4.57;4.17;;;;;;;25.22;49.83;96929.28;5014893;28;20202;-23
2023/07/01 01:40:09;;;;;;;4.87;4.37;;;;;;;25.19;49.70;96931.84;4996649;28;20210;-33
2023/07/01 01:42:37;;;;;;;5.33;4.83;;;;;;;25.17;50.30;96933.53;4995149;28;20260;-23
2023/07/01 01:45:04;;;;;;;4.97;4.43;;;;;;;25.18;50.13;96946.41;4996786;28;20214;-22
2023/07/01 01:47:31;;;;;;;4.87;4.43;;;;;;;25.15;49.85;96936.09;5009710;28;20202;-23
2023/07/01 01:50:01;;;;;;;4.80;4.30;;;;;;;25.11;50.44;96935.22;4991266;28;20658;-26
2023/07/01 01:52:27;;;;;;;4.97;4.47;;;;;;;25.09;50.21;96933.50;5022114;22;20721;-28
2023/07/01 01:54:55;;;;;;;5.00;4.30;;;;;;;25.07;50.30;96932.63;4980502;28;20207;-28
2023/07/01 01:57:22;;;;;;;4.70;4.30;;;;;;;25.00;50.37;96931.75;4994004;28;20711;-28
2023/07/01 01:59:48;;;;;;;5.40;4.90;;;;;;;25.03;50.50;96933.47;4981560;28;20206;-28
2023/07/01 02:02:15;;;;;;;4.90;4.50;;;;;;;25.02;50.31;96932.59;5006123;28;20227;-28
2023/07/01 02:04:42;;;;;;;4.70;4.30;;;;;;;25.03;50.62;96936.91;5009871;28;20580;-28
2023/07/01 02:07:09;;;;;;;4.57;4.17;;;;;;;25.02;50.32;96924.03;5013485;28;20213;-29
2023/07/01 02:09:35;;;;;;;4.43;4.03;;;;;;;25.02;50.40;96924.03;5014198;28;20206;-28
2023/07/01 02:12:04;;;;;;;4.73;4.20;;;;;;;25.03;50.54;96918.03;5012281;28;20230;-28
2023/07/01 02:14:31;;;;;;;4.77;4.37;;;;;;;25.02;50.41;96921.47;5012483;28;20225;-28
2023/07/01 02:16:57;;;;;;;4.53;4.13;;;;;;;25.03;50.67;96920.59;5011640;28;20202;-29
2023/07/01 02:19:24;;;;;;;5.00;4.50;;;;;;;25.04;50.64;96923.19;5013927;28;20210;-28
2023/07/01 02:21:51;;;;;;;4.87;4.37;;;;;;;25.04;50.35;96919.75;4999747;28;20226;-28
2023/07/01 02:24:17;;;;;;;4.67;4.17;;;;;;;25.05;50.16;96927.47;5004439;28;20269;-32
2023/07/01 02:26:45;;;;;;;4.73;4.27;;;;;;;25.07;50.17;96930.03;5014464;28;20202;-28
2023/07/01 02:29:11;;;;;;;4.97;4.47;;;;;;;25.07;50.65;96932.63;5004334;28;20211;-29
2023/07/01 02:31:38;;;;;;;5.20;4.70;;;;;;;25.08;50.50;96934.34;5008167;28;20222;-29
2023/07/01 02:34:05;;;;;;;4.50;4.10;;;;;;;25.08;50.59;96935.19;5013984;28;20280;-28
2023/07/01 02:36:31;;;;;;;5.10;4.60;;;;;;;25.09;50.18;96934.38;5006922;28;20206;-28
2023/07/01 02:38:58;;;;;;;5.20;4.70;;;;;;;25.11;50.26;96936.94;5006565;28;20728;-28
2023/07/01 02:41:24;;;;;;;4.77;4.27;;;;;;;25.11;50.13;96934.38;5005661;28;20218;-29
2023/07/01 02:43:51;;;;;;;4.13;3.73;;;;;;;25.13;50.30;96938.66;5008274;28;20792;-29
2023/07/01 02:46:18;;;;;;;4.47;4.07;;;;;;;25.13;50.15;96939.53;5004299;28;20203;-28
2023/07/01 02:48:44;;;;;;;4.50;4.10;;;;;;;25.14;50.09;96940.38;5011296;28;20268;-36
2023/07/01 02:51:11;;;;;;;4.43;4.03;;;;;;;25.14;50.02;96942.09;5009986;28;20226;-28
2023/07/01 02:53:37;;;;;;;4.60;4.20;;;;;;;25.13;50.58;96938.66;5010546;28;20269;-28
2023/07/01 02:56:04;;;;;;;5.80;4.60;;;;;;;25.16;49.88;96942.13;5008032;28;20207;-28
2023/07/01 02:58:31;;;;;;;4.47;4.07;;;;;;;25.17;50.22;96946.41;5011658;28;20214;-29
2023/07/01 03:00:57;;;;;;;4.30;3.90;;;;;;;25.17;50.53;96946.41;5010676;28;20229;-28
2023/07/01 03:03:24;;;;;;;4.97;4.47;;;;;;;25.17;50.36;96949.84;5010467;28;20202;-28
2023/07/01 03:05:51;;;;;;;4.50;4.10;;;;;;;25.17;50.33;96948.97;5008337;28;20329;-28
2023/07/01 03:08:17;;;;;;;4.77;4.00;;;;;;;25.17;50.08;96955.81;5011988;28;20676;-29
2023/07/01 03:10:44;;;;;;;4.57;4.17;;;;;;;25.15;50.02;96954.09;5003836;28;20222;-28
2023/07/01 03:13:11;;;;;;;4.47;4.07;;;;;;;25.17;50.15;96955.81;5007040;28;20228;-28
2023/07/01 03:15:37;;;;;;;4.37;3.97;;;;;;;25.14;50.34;96954.97;5011059;28;20629;-28
2023/07/01 03:18:04;;;;;;;5.00;4.50;;;;;;;25.17;50.15;96957.56;5013253;28;20264;-29
2023/07/01 03:20:31;;;;;;;4.10;3.70;;;;;;;25.16;50.39;96962.69;5011542;28;20771;-28
2023/07/01 03:22:57;;;;;;;4.40;4.00;;;;;;;25.10;50.53;96956.66;5009939;28;20536;-28
2023/07/01 03:25:25;;;;;;;4.50;4.10;;;;;;;25.10;50.18;96964.34;5010414;28;20225;-28
2023/07/01 03:27:52;;;;;;;5.73;4.47;;;;;;;25.08;50.58;96967.78;5013491;28;20209;-28
2023/07/01 03:30:19;;;;;;;4.70;4.30;;;;;;;25.05;50.72;96970.34;5012801;28;20232;-28
2023/07/01 03:32:46;;;;;;;4.90;4.20;;;;;;;25.02;50.74;96970.31;5011031;28;20234;-28
2023/07/01 03:35:14;;;;;;;4.67;4.23;;;;;;;24.99;50.69;96962.56;5012334;28;20206;-28
2023/07/01 03:37:41;;;;;;;4.67;4.13;;;;;;;24.98;50.37;96972.00;5013269;28;20581;-28
2023/07/01 03:40:11;;;;;;;4.50;4.10;;;;;;;24.96;50.60;96976.25;5013671;28;20210;-28
2023/07/01 03:42:38;;;;;;;4.30;3.90;;;;;;;24.95;51.03;96976.25;5004396;28;20771;-29
2023/07/01 03:45:07;;;;;;;4.50;4.07;;;;;;;24.94;50.55;96967.69;5000050;28;20641;-28
2023/07/01 03:47:43;;;;;;;4.53;4.13;;;;;;;24.93;50.60;96965.94;5012348;28;20260;-28
2023/07/01 03:50:11;;;;;;;4.93;4.43;;;;;;;24.92;50.66;96969.38;5007639;28;20252;-28
2023/07/01 03:52:38;;;;;;;4.17;3.77;;;;;;;24.93;50.91;96976.22;5013058;28;20272;-29
2023/07/01 03:55:07;;;;;;;4.30;3.90;;;;;;;24.94;50.94;96971.97;5002382;28;20253;-28
2023/07/01 03:57:34;;;;;;;4.43;4.03;;;;;;;24.96;50.84;96968.53;5013099;28;20638;-28
2023/07/01 04:00:08;;;;;;;4.40;4.00;;;;;;;24.96;50.80;96971.09;5002193;28;20203;-28
2023/07/01 04:02:37;;;;;;;4.73;4.33;;;;;;;24.79;50.92;96936.72;5002514;28;20229;-28
2023/07/01 04:05:10;;;;;;;4.50;4.10;;;;;;;24.93;50.95;96952.25;5002153;28;20207;-28
2023/07/01 04:07:38;;;;;;;4.50;4.10;;;;;;;24.96;51.06;96952.28;5001112;28;20198;-28
2023/07/01 04:10:05;;;;;;;4.37;3.97;;;;;;;24.99;50.85;96963.41;4989396;28;20214;-28
2023/07/01 04:12:33;;;;;;;4.37;3.83;;;;;;;25.01;50.92;96959.16;5009863;28;20700;-28
2023/07/01 04:15:00;;;;;;;4.50;4.10;;;;;;;25.02;50.96;96952.31;5004002;28;20214;-28
2023/07/01 04:17:28;;;;;;;4.30;3.90;;;;;;;25.02;50.82;96948.00;5000882;28;20233;-28
2023/07/01 04:19:54;;;;;;;4.07;3.77;;;;;;;25.04;50.76;96948.03;5007939;28;20198;-28
2023/07/01 04:22:22;;;;;;;3.97;3.67;;;;;;;25.03;50.48;96943.75;5009059;28;20284;-28
2023/07/01 04:24:49;;;;;;;4.40;4.00;;;;;;;25.04;50.47;96946.31;5004192;28;20747;-31
2023/07/01 04:27:16;;;;;;;4.10;3.70;;;;;;;24.99;50.90;96918.88;5009179;28;20226;-28
2023/07/01 04:29:42;;;;;;;4.80;4.20;;;;;;;25.06;50.75;96931.78;5009125;28;20264;-28
2023/07/01 04:32:09;;;;;;;4.63;4.00;;;;;;;25.06;50.54;96931.78;5011831;28;20271;-28
2023/07/01 04:34:36;;;;;;;4.37;3.97;;;;;;;25.08;50.32;96936.94;5010656;28;20221;-29
2023/07/01 04:37:02;;;;;;;4.07;3.77;;;;;;;25.06;50.30;96942.06;5012337;28;20268;-28
2023/07/01 04:39:29;;;;;;;4.37;3.97;;;;;;;25.09;50.59;96936.06;4994945;28;20537;-28
2023/07/01 04:41:56;;;;;;;3.83;3.53;;;;;;;25.09;50.75;96943.78;5011511;28;20572;-28
2023/07/01 04:44:24;;;;;;;4.73;4.10;;;;;;;25.10;50.32;96946.34;5011881;28;20198;-28
2023/07/01 04:46:50;;;;;;;3.97;3.57;;;;;;;25.11;50.84;96942.09;5010040;28;20206;-28
2023/07/01 04:49:17;;;;;;;4.23;3.83;;;;;;;25.11;50.76;96942.09;5012394;28;20198;-29
2023/07/01 04:51:44;;;;;;;4.40;4.00;;;;;;;25.10;50.45;96938.66;5011411;28;20221;-29
2023/07/01 04:54:10;;;;;;;4.17;3.77;;;;;;;25.07;50.30;96940.31;5004964;28;20222;-28
2023/07/01 04:56:37;;;;;;;4.53;3.83;;;;;;;25.07;50.49;96940.31;5008213;28;20233;-28
2023/07/01 04:59:04;;;;;;;4.30;3.90;;;;;;;25.05;51.02;96945.47;5011319;28;20225;-28
2023/07/01 05:01:31;;;;;;;4.70;4.20;;;;;;;25.03;51.11;96941.16;4987201;28;20663;-28
2023/07/01 05:03:58;;;;;;;4.87;4.27;;;;;;;25.01;51.09;96941.16;5010428;28;20673;-28
2023/07/01 05:06:24;;;;;;;4.53;4.13;;;;;;;24.99;50.78;96948.00;5011663;28;20229;-29
2023/07/01 05:08:52;;;;;;;4.93;4.20;;;;;;;24.97;50.87;96944.56;5008605;28;20658;-28
2023/07/01 05:11:18;;;;;;;5.90;5.10;;;;;;;24.97;51.16;96956.56;5004928;28;20221;-27
2023/07/01 05:13:45;;;;;;;6.30;5.70;;;;;;;24.95;52.34;96955.66;5003351;28;20223;-28
2023/07/01 05:16:12;;;;;;;6.83;6.13;;;;;;;24.92;52.85;96950.50;5001930;28;20634;-28
2023/07/01 05:18:38;;;;;;;7.67;6.67;;;;;;;24.91;52.53;96954.81;5012109;28;20198;-28
2023/07/01 05:21:05;;;;;;;5.50;5.00;;;;;;;24.91;52.57;96959.97;4996896;28;20234;-29
2023/07/01 05:23:32;;;;;;;6.17;5.57;;;;;;;24.90;52.89;96968.50;4995022;28;20198;-28
2023/07/01 05:25:59;;;;;;;7.27;6.53;;;;;;;24.88;54.39;96970.22;4996762;28;20306;-28
2023/07/01 05:28:25;;;;;;;7.13;6.37;;;;;;;24.88;54.77;96966.78;4993251;28;20324;-28
2023/07/01 05:30:52;;;;;;;9.40;7.20;;;;;;;24.87;55.63;96970.22;4994738;28;20273;-28
2023/07/01 05:33:19;;;;;;;7.03;6.30;;;;;;;24.87;55.84;96967.63;4995600;28;20227;-30
2023/07/01 05:35:45;;;;;;;8.30;7.43;;;;;;;24.87;55.70;96973.63;4993683;28;20210;-28
2023/07/01 05:38:12;;;;;;;9.67;7.33;;;;;;;24.87;55.62;96977.91;4995892;28;20268;-29
2023/07/01 05:40:39;;;;;;;8.97;7.43;;;;;;;24.84;55.98;96970.19;4997051;28;20310;-28
2023/07/01 05:43:05;;;;;;;8.60;7.40;;;;;;;24.84;56.60;96975.31;4996493;28;20230;-30
2023/07/01 05:45:32;;;;;;;9.43;7.43;;;;;;;24.83;56.50;96982.16;4995423;28;20861;-28
2023/07/01 05:47:59;;;;;;;11.03;8.07;;;;;;;24.82;56.08;96982.16;4993497;28;20270;-28
2023/07/01 05:50:25;;;;;;;8.43;6.80;;;;;;;24.77;56.17;96973.53;4997583;28;20603;-29
2023/07/01 05:52:52;;;;;;;9.80;7.87;;;;;;;24.79;56.57;96984.69;4994765;28;20735;-28
2023/07/01 05:55:18;;;;;;;8.00;7.20;;;;;;;24.78;56.79;96986.41;4993492;28;20206;-29
2023/07/01 05:57:45;;;;;;;8.70;7.53;;;;;;;24.78;56.38;96991.53;4993691;28;20234;-29
2023/07/01 06:00:13;;;;;;;8.80;7.50;;;;;;;24.77;56.91;96991.53;4994445;28;20250;-28
2023/07/01 06:02:40;;;;;;;9.87;7.50;;;;;;;24.76;56.60;96987.25;4997185;28;20309;-29
2023/07/01 06:05:08;;;;;;;7.83;6.93;;;;;;;24.75;57.14;97000.94;4994067;28;20555;-29
2023/07/01 06:07:35;;;;;;;8.83;7.30;;;;;;;24.74;57.03;96987.22;4996610;28;20257;-28
2023/07/01 06:10:02;;;;;;;11.70;7.10;;;;;;;24.74;56.87;96994.94;4996458;28;20206;-29
2023/07/01 06:12:29;;;;;;;9.77;7.40;;;;;;;24.73;56.69;96992.34;4998964;28;20234;-28
2023/07/01 06:14:55;;;;;;;7.90;6.83;;;;;;;24.69;56.66;96986.31;4998920;28;20218;-28
2023/07/01 06:17:22;;;;;;;7.97;7.07;;;;;;;24.71;55.88;96994.91;4999124;28;20207;-28
2023/07/01 06:19:48;;;;;;;7.33;6.47;;;;;;;24.69;55.97;96985.47;5001606;28;20216;-34
2023/07/01 06:22:15;;;;;;;7.20;6.50;;;;;;;24.66;56.28;96986.28;4995510;28;20226;-36
2023/07/01 06:24:42;;;;;;;7.53;6.83;;;;;;;24.63;56.22;96988.81;5000949;28;20642;-28
2023/07/01 06:27:09;;;;;;;9.53;7.27;;;;;;;24.59;56.06;96986.19;4998808;28;20253;-28
2023/07/01 06:29:36;;;;;;;8.00;6.40;;;;;;;24.56;56.12;96992.19;4999367;28;20609;-30
2023/07/01 06:32:02;;;;;;;9.80;7.07;;;;;;;24.53;56.40;96992.16;4999808;28;20674;-30
2023/07/01 06:34:29;;;;;;;8.83;6.63;;;;;;;24.50;56.41;96994.69;5000037;28;20219;-28
2023/07/01 06:36:56;;;;;;;10.27;7.20;;;;;;;24.48;56.48;96991.25;4998727;28;20210;-28
2023/07/01 06:39:22;;;;;;;8.63;6.67;;;;;;;24.46;56.28;96992.09;4995777;28;20198;-37
2023/07/01 06:41:49;;;;;;;9.20;7.40;;;;;;;24.42;56.32;96991.19;4997509;28;21045;-29
2023/07/01 06:44:15;;;;;;;7.60;6.60;;;;;;;24.42;56.47;96991.19;4997183;28;20265;-34
2023/07/01 06:46:42;;;;;;;8.50;7.43;;;;;;;24.42;56.37;96993.75;4998190;28;20206;-29
2023/07/01 06:49:09;;;;;;;9.00;6.90;;;;;;;24.40;56.57;96987.75;4998904;28;20263;-28
2023/07/01 06:51:35;;;;;;;9.17;7.57;;;;;;;24.43;56.81;96990.34;4997871;28;20285;-28
2023/07/01 06:54:02;;;;;;;7.93;7.00;;;;;;;24.44;56.71;96988.63;4997701;28;20309;-28
2023/07/01 06:56:29;;;;;;;8.73;7.73;;;;;;;24.41;56.30;96975.75;4998376;28;20613;-28
2023/07/01 06:58:55;;;;;;;9.07;7.33;;;;;;;24.44;56.22;96970.66;4998200;28;20643;-29
2023/07/01 07:01:22;;;;;;;9.03;7.50;;;;;;;24.33;56.24;96956.84;5000160;28;20230;-29
2023/07/01 07:03:49;;;;;;;8.70;7.10;;;;;;;24.47;56.39;96973.25;5000279;28;20329;-28
2023/07/01 07:06:15;;;;;;;7.77;6.97;;;;;;;24.47;56.19;96974.13;5000129;28;20203;-28
2023/07/01 07:08:42;;;;;;;9.53;7.10;;;;;;;24.48;56.36;96975.81;4999671;28;20209;-29
2023/07/01 07:11:08;;;;;;;8.17;7.33;;;;;;;24.50;56.34;96973.28;4998517;28;20238;-33
2023/07/01 07:13:35;;;;;;;7.73;6.90;;;;;;;24.50;56.12;96973.28;4993983;28;20654;-28
2023/07/01 07:16:02;;;;;;;8.17;6.83;;;;;;;24.51;56.56;96973.28;4995565;28;20198;-28
2023/07/01 07:18:28;;;;;;;8.17;7.03;;;;;;;24.51;56.06;96982.72;4996638;28;20669;-28
2023/07/01 07:20:55;;;;;;;8.07;6.73;;;;;;;24.52;56.42;96984.44;4979021;28;20225;-29
2023/07/01 07:23:22;;;;;;;8.37;6.93;;;;;;;24.52;56.49;96972.47;4997166;28;20258;-29
2023/07/01 07:25:48;;;;;;;7.87;6.73;;;;;;;24.53;56.06;96974.16;4999575;28;20203;-29
2023/07/01 07:28:16;;;;;;;7.27;6.57;;;;;;;24.53;56.37;96969.03;4997118;28;20629;-28
2023/07/01 07:30:43;;;;;;;8.37;6.43;;;;;;;24.55;55.87;96966.47;4996095;28;20237;-28
2023/07/01 07:33:09;;;;;;;8.67;7.17;;;;;;;24.55;55.93;96967.34;4996320;28;20213;-29
2023/07/01 07:35:36;;;;;;;6.83;6.13;;;;;;;24.56;56.22;96968.19;4996874;28;20207;-29
2023/07/01 07:38:06;;;;;;;8.07;6.80;;;;;;;24.56;56.17;96965.63;4998380;28;20302;-28
2023/07/01 07:40:32;;;;;;;7.80;6.30;;;;;;;24.56;55.84;96966.50;4996716;28;20202;-28
2023/07/01 07:42:59;;;;;;;7.57;6.80;;;;;;;24.56;55.72;96963.03;4997034;28;20260;-28
2023/07/01 07:45:25;;;;;;;7.80;6.40;;;;;;;24.57;55.76;96963.06;4979759;28;20207;-32
2023/07/01 07:47:52;;;;;;;7.10;6.40;;;;;;;24.54;55.59;96962.19;4997186;28;20202;-29
2023/07/01 07:50:21;;;;;;;7.30;6.47;;;;;;;24.52;55.23;96957.03;4996717;28;20226;-31
2023/07/01 07:52:49;;;;;;;7.20;6.07;;;;;;;24.50;55.55;96963.88;5023710;22;20245;-27
2023/07/01 07:55:15;;;;;;;6.73;6.00;;;;;;;24.48;54.92;96951.88;5015822;28;20330;-27
2023/07/01 07:57:42;;;;;;;7.20;6.00;;;;;;;24.47;54.98;96956.13;5000691;28;20214;-27
2023/07/01 08:00:09;;;;;;;6.90;6.20;;;;;;;24.46;54.88;96959.56;5016431;28;20209;-27
2023/07/01 08:02:42;;;;;;;9.03;5.90;;;;;;;24.45;55.17;96962.13;4998739;28;20230;-26
2023/07/01 08:05:08;;;;;;;6.33;5.73;;;;;;;24.43;55.21;96954.41;5006887;28;20209;-27
2023/07/01 08:07:35;;;;;;;6.40;5.60;;;;;;;24.44;54.96;96963.81;5000609;28;20302;-27
2023/07/01 08:10:02;;;;;;;6.40;5.30;;;;;;;24.43;55.21;96959.53;5005054;28;20633;-27
2023/07/01 08:12:28;;;;;;;9.50;5.27;;;;;;;24.43;54.69;96954.41;5001398;28;20256;-27
2023/07/01 08:14:55;;;;;;;5.47;4.97;;;;;;;24.44;54.87;96948.41;4996770;28;20709;-31
2023/07/01 08:17:21;;;;;;;5.97;5.37;;;;;;;24.46;54.53;96949.28;4998120;28;20206;-29
2023/07/01 08:19:48;;;;;;;5.50;5.00;;;;;;;24.46;54.65;96944.16;5000933;28;20746;-27
2023/07/01 08:22:15;;;;;;;5.00;4.60;;;;;;;24.48;54.59;96937.28;5004306;28;20227;-27
2023/07/01 08:24:41;;;;;;;5.47;4.93;;;;;;;24.49;54.23;96938.16;5000604;28;20207;-27
2023/07/01 08:27:08;;;;;;;7.50;5.50;;;;;;;24.51;54.42;96939.03;5007801;28;20229;-27
2023/07/01 08:29:34;;;;;;;6.07;5.47;;;;;;;24.53;54.55;96934.75;5003004;28;20207;-27
2023/07/01 08:32:01;;;;;;;5.93;5.13;;;;;;;24.54;53.98;96931.38;4999650;28;20262;-27
2023/07/01 08:34:28;;;;;;;4.97;4.43;;;;;;;24.56;54.29;96933.09;4992413;28;20227;-27
2023/07/01 08:36:54;;;;;;;4.87;4.40;;;;;;;24.58;54.05;96931.41;5003379;28;20202;-27
2023/07/01 08:39:21;;;;;;;11.43;4.60;;;;;;;24.59;54.22;96930.53;4997844;28;20249;-27
2023/07/01 08:41:52;;;;;;;5.17;4.67;;;;;;;24.60;53.69;96923.72;4997115;28;20227;-27
2023/07/01 08:44:19;;;;;;;4.87;4.33;;;;;;;24.64;53.85;96922.88;4999152;28;20696;-27
2023/07/01 08:46:49;;;;;;;4.73;4.33;;;;;;;24.66;54.01;96916.06;4999884;28;20633;-27
2023/07/01 08:49:16;;;;;;;5.23;4.73;;;;;;;24.68;53.59;96916.94;4979572;28;20283;-27
2023/07/01 08:51:43;;;;;;;4.67;4.27;;;;;;;24.69;53.73;96911.78;4976069;28;20301;-31
2023/07/01 08:54:10;;;;;;;5.10;4.57;;;;;;;24.70;53.29;96910.09;4992166;28;20759;-26
2023/07/01 08:56:36;;;;;;;4.73;4.30;;;;;;;24.73;53.47;96907.56;4980247;28;20199;-26
2023/07/01 08:59:03;;;;;;;4.20;3.80;;;;;;;24.75;53.35;96911.84;4969682;28;20206;-26
2023/07/01 09:01:30;;;;;;;4.40;4.00;;;;;;;24.78;53.59;96905.88;4981808;28;20269;-27
2023/07/01 09:03:57;;;;;;;4.60;4.20;;;;;;;24.78;52.21;96904.16;4993434;28;20253;-27
2023/07/01 09:06:24;;;;;;;4.33;3.63;;;;;;;24.80;49.86;96901.59;4998911;28;20297;-27
2023/07/01 09:08:50;;;;;;;4.30;3.80;;;;;;;24.81;48.96;96908.47;4991724;28;20290;-27
2023/07/01 09:11:18;;;;;;;3.80;3.40;;;;;;;24.81;47.72;96904.16;4990419;28;20298;-36
2023/07/01 09:13:45;;;;;;;4.37;3.47;;;;;;;24.83;47.35;96905.06;4982958;28;20219;-27
2023/07/01 09:16:12;;;;;;;3.40;3.10;;;;;;;24.84;46.16;96901.63;4983651;28;20212;-31
2023/07/01 09:18:43;;;;;;;3.57;3.27;;;;;;;24.87;45.58;96890.53;4966138;28;20210;-27
2023/07/01 09:21:17;;;;;;;5.37;3.50;;;;;;;24.90;44.76;96890.53;4984063;28;20690;-27
2023/07/01 09:23:45;;;;;;;3.03;2.83;;;;;;;24.94;44.63;96889.69;4983659;28;20333;-27
2023/07/01 09:26:14;;;;;;;3.30;3.00;;;;;;;24.97;43.98;96882.00;4982322;28;20210;-29
2023/07/01 09:28:42;;;;;;;3.37;3.07;;;;;;;24.99;43.67;96881.16;4981113;28;20215;-27
2023/07/01 09:31:11;;;;;;;3.20;2.90;;;;;;;25.03;43.34;96885.47;4982987;28;20231;-39
2023/07/01 09:33:37;;;;;;;3.43;3.13;;;;;;;25.04;42.89;96865.75;4982622;28;20211;-34
2023/07/01 09:36:05;;;;;;;3.73;2.90;;;;;;;25.09;42.50;96877.78;4982619;28;20251;-27
2023/07/01 09:38:32;;;;;;;3.20;2.90;;;;;;;25.11;42.51;96876.06;4980526;28;20245;-27
2023/07/01 09:41:18;;;;;;;3.17;2.87;;;;;;;25.15;43.22;96871.81;4980980;28;20337;-30
2023/07/01 09:43:45;;;;;;;3.70;3.00;;;;;;;25.17;43.43;96876.09;4980775;28;20207;-29
2023/07/01 09:46:12;;;;;;;3.37;3.00;;;;;;;25.20;42.89;96859.84;4981647;28;20747;-36
2023/07/01 09:48:38;;;;;;;3.67;3.03;;;;;;;25.22;42.74;96854.72;4985426;28;20211;-27
2023/07/01 09:51:05;;;;;;;3.40;3.10;;;;;;;25.26;42.09;96866.72;4984260;28;20653;-37
2023/07/01 09:53:34;;;;;;;2.83;2.63;;;;;;;25.29;41.82;96864.16;4984060;28;20210;-34
2023/07/01 09:56:02;;;;;;;5.87;2.97;;;;;;;25.29;41.77;96859.88;4986119;28;20712;-27
2023/07/01 09:58:31;;;;;;;3.97;3.10;;;;;;;25.30;41.13;96866.72;4989111;28;20237;-27
2023/07/01 10:00:58;;;;;;;6.93;2.87;;;;;;;25.27;41.17;96846.16;4970401;28;20233;-27
2023/07/01 10:03:27;;;;;;;3.33;2.70;;;;;;;25.37;41.09;96859.94;4970465;28;20210;-27
2023/07/01 10:05:54;;;;;;;5.20;2.70;;;;;;;25.38;41.18;96849.66;4986475;28;20230;-31
2023/07/01 10:08:21;;;;;;;4.40;3.03;;;;;;;25.41;40.95;96857.38;4985675;28;20210;-27
2023/07/01 10:11:04;;;;;;;3.27;2.83;;;;;;;25.43;40.68;96852.25;4985110;28;20647;-27
2023/07/01 10:13:32;;;;;;;2.60;2.40;;;;;;;25.40;40.59;96834.22;4969954;28;20468;-27
2023/07/01 10:16:01;;;;;;;4.53;2.63;;;;;;;25.47;40.37;96849.69;4952734;28;20268;-27
2023/07/01 10:18:30;;;;;;;3.20;2.90;;;;;;;25.49;40.42;96853.09;4968094;28;20218;-27
2023/07/01 10:21:24;;;;;;;4.67;2.53;;;;;;;25.52;40.26;96847.13;4985737;28;20198;-34
2023/07/01 10:23:51;;;;;;;3.07;2.77;;;;;;;25.52;40.24;96841.97;4983327;28;20203;-28
2023/07/01 10:26:36;;;;;;;3.47;2.70;;;;;;;25.55;39.97;96839.41;4985275;28;20568;-27
2023/07/01 10:29:27;;;;;;;2.50;2.30;;;;;;;25.57;39.80;96830.84;4984008;28;20710;-27
2023/07/01 10:32:09;;;;;;;2.77;2.50;;;;;;;25.58;39.67;96831.72;4984770;28;20238;-33
2023/07/01 10:35:03;;;;;;;2.63;2.43;;;;;;;25.60;39.63;96832.56;4987851;28;20218;-30
2023/07/01 10:37:33;;;;;;;2.70;2.50;;;;;;;25.62;39.53;96829.16;4983339;28;20746;-27
2023/07/01 10:40:00;;;;;;;4.20;2.13;;;;;;;25.63;39.72;96830.84;4986982;28;20750;-27
2023/07/01 10:42:31;;;;;;;4.03;2.50;;;;;;;25.65;39.35;96825.72;4985957;28;20284;-27
2023/07/01 10:45:10;;;;;;;2.93;2.70;;;;;;;25.65;39.23;96826.59;4984792;28;20210;-27
2023/07/01 10:47:37;;;;;;;2.97;2.40;;;;;;;25.68;39.34;96828.28;4984141;28;20210;-37
2023/07/01 10:50:05;;;;;;;2.80;2.40;;;;;;;25.69;39.16;96822.31;4984767;28;20290;-38
2023/07/01 10:52:32;;;;;;;2.70;2.50;;;;;;;25.69;39.14;96817.16;4985155;28;20227;-27
2023/07/01 10:55:00;;;;;;;3.80;2.80;;;;;;;25.71;39.12;96813.72;4983550;28;20709;-28
2023/07/01 10:57:27;;;;;;;3.37;2.70;;;;;;;25.71;39.01;96811.16;4983319;28;20215;-27
2023/07/01 11:00:32;;;;;;;3.33;2.40;;;;;;;25.73;38.88;96806.88;4984667;28;20206;-31
2023/07/01 11:02:59;;;;;;;2.60;2.40;;;;;;;25.73;38.35;96800.84;4984059;28;20230;-27
2023/07/01 11:05:28;;;;;;;3.67;2.63;;;;;;;25.75;38.26;96804.31;4984298;28;20221;-27
2023/07/01 11:08:09;;;;;;;2.63;2.13;;;;;;;25.75;38.10;96796.56;4998291;28;20229;-27
2023/07/01 11:10:36;;;;;;;2.20;2.00;;;;;;;25.77;38.02;96788.00;4984983;28;20202;-26
2023/07/01 11:13:03;;;;;;;3.67;2.10;;;;;;;25.76;37.37;96788.84;4995225;28;20231;-26
2023/07/01 11:15:30;;;;;;;2.30;2.10;;;;;;;25.76;37.40;96776.00;5000315;28;20226;-28
2023/07/01 11:17:58;;;;;;;2.40;2.20;;;;;;;25.77;37.49;96776.81;4985693;28;20246;-27
2023/07/01 11:20:24;;;;;;;2.20;2.00;;;;;;;25.77;37.14;96780.28;4997818;28;20202;-27
2023/07/01 11:22:51;;;;;;;2.63;2.23;;;;;;;25.78;36.93;96768.28;5004176;28;20268;-31
2023/07/01 11:25:18;;;;;;;2.50;2.30;;;;;;;25.78;37.09;96768.28;4987230;28;20199;-27
2023/07/01 11:27:44;;;;;;;2.73;2.10;;;;;;;25.77;37.00;96757.09;5000691;28;20203;-27
2023/07/01 11:30:30;;;;;;;2.10;1.90;;;;;;;25.77;36.97;96762.25;5003668;28;20393;-27
2023/07/01 11:32:56;;;;;;;2.20;2.00;;;;;;;25.78;37.22;96760.53;5004848;28;20218;-27
2023/07/01 11:35:23;;;;;;;2.00;1.67;;;;;;;25.79;36.92;96759.69;4969781;28;20250;-27
2023/07/01 11:37:49;;;;;;;2.03;1.83;;;;;;;25.78;37.02;96747.69;5000504;28;20265;-27